Time;durP1;ratioP1;P1;durP2;ratioP2;P2;SDS_P1;SDS_P2;PMS_P1;PMS_P2;Temp;Humidity;BMP_temperature;BMP_pressure;BME280_temperature;BME280_humidity;BME280_pressure;Samples;Min_cycle;Max_cycle;Signal;HPM_P1;HPM_P2
2021/06/04 00:02:12;;;;;;;43.85;21.50;;;;;;;14.34;48.32;99289.16;4944942;28;20110;-73
2021/06/04 00:04:37;;;;;;;45.60;22.75;;;;;;;14.31;48.24;99284.25;4941044;29;20114;-73
2021/06/04 00:07:04;;;;;;;51.70;22.48;;;;;;;14.28;48.60;99278.22;4935260;29;20027;-73
2021/06/04 00:09:29;;;;;;;45.25;21.92;;;;;;;14.25;48.88;99273.28;4935724;29;20114;-73
2021/06/04 00:11:59;;;;;;;45.53;22.38;;;;;;;14.22;48.77;99281.34;4942267;29;20477;-73
2021/06/04 00:14:30;;;;;;;46.55;21.73;;;;;;;14.20;48.89;99283.59;4944668;29;20019;-73
2021/06/04 00:17:01;;;;;;;42.17;22.17;;;;;;;14.15;48.57;99276.19;4944888;29;20038;-72
2021/06/04 00:19:30;;;;;;;47.22;22.08;;;;;;;14.11;48.92;99283.44;4944696;29;20062;-73
2021/06/04 00:22:06;;;;;;;47.30;21.95;;;;;;;14.08;48.96;99276.59;4944904;29;20038;-73
2021/06/04 00:24:32;;;;;;;49.38;22.52;;;;;;;14.04;49.00;99272.78;4944304;28;20098;-73
2021/06/04 00:26:57;;;;;;;44.97;22.00;;;;;;;13.99;49.12;99276.47;4938882;29;20686;-73
2021/06/04 00:29:23;;;;;;;46.70;22.80;;;;;;;13.97;49.02;99278.69;4935722;28;20026;-72
2021/06/04 00:31:51;;;;;;;45.20;22.75;;;;;;;13.93;48.98;99280.41;4938479;29;20031;-72
2021/06/04 00:34:17;;;;;;;43.70;20.60;;;;;;;13.87;48.89;99272.50;4944367;29;20458;-72
2021/06/04 00:36:44;;;;;;;43.53;21.40;;;;;;;13.83;49.39;99280.53;4944511;29;20057;-72
2021/06/04 00:39:12;;;;;;;46.13;22.02;;;;;;;13.77;49.42;99279.81;4943971;29;20831;-72
2021/06/04 00:41:50;;;;;;;44.08;21.08;;;;;;;13.70;49.35;99277.41;4944649;29;20553;-72
2021/06/04 00:44:16;;;;;;;53.42;22.15;;;;;;;13.62;49.58;99286.34;4944223;29;20101;-72
2021/06/04 00:46:42;;;;;;;45.28;21.58;;;;;;;13.55;49.75;99280.38;4945647;28;20035;-72
2021/06/04 00:49:08;;;;;;;46.47;22.20;;;;;;;13.52;49.61;99289.25;4938805;29;20038;-72
2021/06/04 00:51:38;;;;;;;46.47;22.33;;;;;;;13.49;49.96;99287.88;4939842;28;20023;-72
2021/06/04 00:54:06;;;;;;;46.78;22.60;;;;;;;13.46;50.43;99287.66;4945370;29;20481;-72
2021/06/04 00:56:32;;;;;;;51.35;23.05;;;;;;;13.44;49.93;99284.38;4948207;29;20035;-72
2021/06/04 00:58:58;;;;;;;47.65;22.75;;;;;;;13.41;50.36;99291.31;4947903;29;20027;-72
2021/06/04 01:01:26;;;;;;;51.65;25.00;;;;;;;13.35;50.11;99282.25;4946545;29;20102;-72
2021/06/04 01:03:58;;;;;;;49.30;23.88;;;;;;;13.30;50.43;99278.75;4947747;29;20035;-72
2021/06/04 01:06:39;;;;;;;48.92;23.88;;;;;;;13.24;50.22;99280.75;4947701;29;20098;-71
2021/06/04 01:09:12;;;;;;;48.72;23.50;;;;;;;13.21;50.14;99282.13;4941175;29;20054;-71
2021/06/04 01:11:49;;;;;;;50.08;23.15;;;;;;;13.20;50.80;99287.97;4938605;29;20028;-70
2021/06/04 01:14:18;;;;;;;49.95;24.88;;;;;;;13.15;50.96;99286.06;4941985;29;20038;-71
2021/06/04 01:16:57;;;;;;;52.97;25.63;;;;;;;13.16;50.98;99286.91;4947602;29;20029;-70
2021/06/04 01:19:47;;;;;;;50.72;25.77;;;;;;;13.12;50.90;99280.34;4947564;29;20023;-71
2021/06/04 01:22:20;;;;;;;;;;;;;;;13.07;50.79;99286.69;4947794;29;20027;-71
2021/06/04 01:24:52;;;;;;;55.35;24.77;;;;;;;12.98;50.79;99283.78;4947460;29;19918;-71
2021/06/04 01:27:24;;;;;;;52.72;24.95;;;;;;;12.93;50.65;99279.16;4947168;29;20094;-71
2021/06/04 01:30:12;;;;;;;54.72;26.05;;;;;;;12.90;51.15;99274.22;4942188;29;20058;-71
2021/06/04 01:32:38;;;;;;;58.08;26.27;;;;;;;12.86;50.89;99277.84;4938490;29;20023;-71
2021/06/04 01:35:09;;;;;;;60.60;26.20;;;;;;;12.83;51.05;99282.00;4941238;29;20031;-71
2021/06/04 01:37:34;;;;;;;52.15;25.08;;;;;;;12.79;51.41;99275.44;4931155;29;20663;-71
2021/06/04 01:40:09;;;;;;;56.80;28.58;;;;;;;12.77;51.60;99278.50;4946835;29;20154;-71
2021/06/04 01:42:37;;;;;;;69.95;28.73;;;;;;;12.77;51.57;99270.25;4947054;29;20039;-72
2021/06/04 01:45:14;;;;;;;64.57;28.50;;;;;;;12.77;51.63;99267.50;4946941;29;20027;-71
2021/06/04 01:47:42;;;;;;;64.25;28.90;;;;;;;12.74;51.96;99279.06;4947023;29;20038;-72
2021/06/04 01:50:16;;;;;;;63.83;30.38;;;;;;;12.73;51.79;99274.69;4944980;29;20114;-73
2021/06/04 01:52:43;;;;;;;69.63;32.15;;;;;;;12.71;52.33;99271.41;4937477;29;20035;-72
2021/06/04 01:55:12;;;;;;;69.80;32.80;;;;;;;12.69;52.27;99281.88;4938802;29;20030;-72
2021/06/04 01:57:41;;;;;;;71.32;33.15;;;;;;;12.68;52.31;99276.66;4944849;28;20038;-71
2021/06/04 02:00:29;;;;;;;77.43;35.75;;;;;;;12.64;52.09;99277.22;4952596;29;20118;-72
2021/06/04 02:02:56;;;;;;;78.15;38.67;;;;;;;12.63;52.34;99278.31;4954906;29;20078;-71
2021/06/04 02:05:28;;;;;;;86.95;39.97;;;;;;;12.59;52.37;99271.78;4954788;29;20066;-72
2021/06/04 02:07:53;;;;;;;89.63;44.15;;;;;;;12.58;52.28;99275.66;4954996;28;20474;-71
2021/06/04 02:10:29;;;;;;;96.07;45.25;;;;;;;12.58;52.59;99277.56;4955601;28;20115;-72
2021/06/04 02:12:54;;;;;;;95.05;45.65;;;;;;;12.56;52.79;99274.28;4956175;28;20030;-72
2021/06/04 02:15:27;;;;;;;98.70;46.78;;;;;;;12.55;52.68;99276.22;4956326;28;20445;-72
2021/06/04 02:18:13;;;;;;;94.38;45.60;;;;;;;12.55;52.24;99280.91;4956152;28;20114;-72
2021/06/04 02:20:41;;;;;;;99.43;47.30;;;;;;;12.55;52.52;99278.16;4956137;28;20478;-72
2021/06/04 02:23:14;;;;;;;100.35;46.65;;;;;;;12.53;52.59;99281.19;4969089;28;20501;-72
2021/06/04 02:26:12;;;;;;;102.22;46.80;;;;;;;12.49;53.05;99280.94;4967831;28;20444;-71
2021/06/04 02:28:40;;;;;;;100.80;46.30;;;;;;;12.47;52.57;99274.09;4950429;28;20021;-72
2021/06/04 02:31:28;;;;;;;101.65;47.45;;;;;;;12.42;52.69;99269.47;4954664;28;20063;-71
2021/06/04 02:34:20;;;;;;;106.28;46.97;;;;;;;12.38;52.75;99264.81;4954596;28;20023;-71
2021/06/04 02:36:50;;;;;;;94.68;45.20;;;;;;;12.31;52.86;99274.22;4953027;29;20032;-71
2021/06/04 02:39:21;;;;;;;90.03;44.70;;;;;;;12.28;52.75;99279.47;4952113;29;20109;-71
2021/06/04 02:41:59;;;;;;;92.38;44.28;;;;;;;12.24;52.76;99276.47;4954669;28;20114;-72
2021/06/04 02:44:33;;;;;;;90.32;41.30;;;;;;;12.20;53.43;99278.19;4953467;29;20034;-72
2021/06/04 02:47:17;;;;;;;97.88;41.92;;;;;;;12.18;53.34;99275.69;4952496;29;20023;-71
2021/06/04 02:49:42;;;;;;;97.45;41.08;;;;;;;12.13;53.70;99267.47;4953924;29;20031;-72
2021/06/04 02:52:24;;;;;;;89.88;42.15;;;;;;;12.10;53.78;99279.06;4955908;28;20038;-71
2021/06/04 02:54:50;;;;;;;88.90;40.95;;;;;;;12.06;53.24;99281.56;4955793;28;20108;-72
2021/06/04 02:57:19;;;;;;;96.43;40.50;;;;;;;12.06;53.45;99281.56;4955770;28;20023;-71
2021/06/04 02:59:47;;;;;;;91.78;41.50;;;;;;;12.04;53.87;99274.69;4955786;28;20078;-71
2021/06/04 03:02:17;;;;;;;96.72;44.20;;;;;;;12.04;53.74;99278.28;4955766;28;20491;-72
2021/06/04 03:04:47;;;;;;;110.68;43.45;;;;;;;12.05;53.75;99274.44;4955593;28;20082;-72
2021/06/04 03:07:15;;;;;;;;;;;;;;;12.06;53.35;99278.81;4956025;28;20035;-71
2021/06/04 03:09:44;;;;;;;98.40;47.88;;;;;;;12.08;54.09;99277.72;4955413;28;19978;-72
2021/06/04 03:12:19;;;;;;;106.03;47.10;;;;;;;12.08;54.15;99273.03;4955397;28;20031;-71
2021/06/04 03:14:47;;;;;;;107.03;46.58;;;;;;;12.08;54.64;99281.28;4955278;28;20481;-71
2021/06/04 03:17:14;;;;;;;97.30;43.72;;;;;;;12.09;53.88;99271.91;4955033;28;20078;-72
2021/06/04 03:19:40;;;;;;;98.05;45.03;;;;;;;12.10;54.17;99279.06;4955117;28;20023;-72
2021/06/04 03:22:38;;;;;;;98.32;44.95;;;;;;;12.11;54.66;99275.19;4955160;28;20035;-71
2021/06/04 03:25:19;;;;;;;98.30;44.50;;;;;;;12.16;54.67;99277.09;4951021;28;20058;-72
2021/06/04 03:27:46;;;;;;;90.57;40.28;;;;;;;12.19;54.65;99271.84;4955194;28;20020;-72
2021/06/04 03:30:13;;;;;;;86.38;40.00;;;;;;;12.23;54.01;99276.78;4954952;28;20055;-72
2021/06/04 03:32:38;;;;;;;74.60;35.13;;;;;;;12.25;54.77;99275.38;4954849;28;20035;-72
2021/06/04 03:35:06;;;;;;;72.78;31.73;;;;;;;12.32;54.44;99283.31;4955011;28;20090;-71
2021/06/04 03:37:31;;;;;;;61.20;31.10;;;;;;;12.36;54.31;99284.38;4954617;28;20058;-72
2021/06/04 03:39:56;;;;;;;65.38;30.67;;;;;;;12.41;54.47;99284.34;4954578;28;20085;-72
2021/06/04 03:42:26;;;;;;;59.80;29.58;;;;;;;12.50;54.35;99290.03;4954768;28;20091;-72
2021/06/04 03:44:52;;;;;;;55.65;28.13;;;;;;;12.56;54.43;99288.03;4954510;28;20031;-72
2021/06/04 03:47:18;;;;;;;62.75;27.13;;;;;;;12.63;54.17;99283.03;4954694;28;20082;-72
2021/06/04 03:49:44;;;;;;;55.58;27.13;;;;;;;12.69;54.28;99292.88;4954776;28;20055;-72
2021/06/04 03:52:12;;;;;;;56.22;27.15;;;;;;;12.76;54.73;99289.78;4954582;28;20051;-71
2021/06/04 03:54:44;;;;;;;56.50;28.15;;;;;;;12.84;54.41;99291.91;4954682;28;20023;-71
2021/06/04 03:57:13;;;;;;;57.05;27.50;;;;;;;12.91;54.07;99291.56;4954627;28;20090;-72
2021/06/04 03:59:39;;;;;;;52.80;26.52;;;;;;;13.00;54.44;99300.81;4954532;28;20023;-72
2021/06/04 04:02:09;;;;;;;55.33;26.02;;;;;;;13.07;54.38;99300.47;4954362;28;20039;-73
2021/06/04 04:04:35;;;;;;;50.38;24.90;;;;;;;13.15;54.25;99299.03;4954415;28;20066;-72
2021/06/04 04:07:02;;;;;;;54.08;24.33;;;;;;;13.24;54.05;99297.28;4954254;28;20055;-71
2021/06/04 04:09:27;;;;;;;55.53;23.80;;;;;;;13.30;54.23;99301.59;4954275;28;20104;-72
2021/06/04 04:11:54;;;;;;;47.17;23.15;;;;;;;13.35;53.93;99296.03;4954350;28;20422;-71
2021/06/04 04:14:20;;;;;;;48.35;23.77;;;;;;;13.40;54.14;99297.91;4954316;28;20061;-72
2021/06/04 04:16:46;;;;;;;47.65;23.70;;;;;;;13.46;54.19;99295.94;4954403;28;20066;-72
2021/06/04 04:19:12;;;;;;;48.40;23.10;;;;;;;13.55;54.03;99299.69;4954219;28;20031;-72
2021/06/04 04:21:37;;;;;;;43.45;22.58;;;;;;;13.62;53.95;99293.78;4957508;28;20094;-72
2021/06/04 04:24:13;;;;;;;47.20;22.08;;;;;;;13.70;53.84;99301.41;4960555;28;20030;-72
2021/06/04 04:26:40;;;;;;;49.47;23.63;;;;;;;13.78;54.01;99292.47;4960709;28;20537;-72
2021/06/04 04:29:06;;;;;;;43.85;22.50;;;;;;;13.88;53.83;99298.94;4960649;28;20445;-72
2021/06/04 04:31:36;;;;;;;43.88;21.80;;;;;;;13.93;53.98;99301.63;4960628;28;20038;-72
2021/06/04 04:34:05;;;;;;;44.33;22.30;;;;;;;13.98;53.86;99299.63;4960515;28;20074;-72
2021/06/04 04:36:35;;;;;;;47.40;22.80;;;;;;;14.05;54.02;99301.22;4960345;28;20524;-71
2021/06/04 04:39:00;;;;;;;45.40;23.30;;;;;;;14.08;54.00;99298.66;4960362;28;20047;-72
2021/06/04 04:41:27;;;;;;;52.45;26.02;;;;;;;14.17;53.96;99303.50;4960702;28;20038;-72
2021/06/04 04:43:54;;;;;;;48.38;24.50;;;;;;;14.21;54.15;99301.78;4960391;28;20089;-72
2021/06/04 04:46:22;;;;;;;51.90;24.20;;;;;;;14.23;53.89;99292.09;4960551;28;20486;-72
2021/06/04 04:48:48;;;;;;;46.17;22.70;;;;;;;14.28;54.02;99297.53;4960482;28;20027;-72
2021/06/04 04:51:15;;;;;;;43.92;22.52;;;;;;;14.35;54.09;99302.66;4975319;28;20441;-72
2021/06/04 04:53:41;;;;;;;40.83;20.50;;;;;;;14.39;54.00;99306.44;4960359;28;20028;-73
2021/06/04 04:56:08;;;;;;;42.13;21.52;;;;;;;14.44;54.46;99303.59;4960214;28;20035;-73
2021/06/04 04:58:34;;;;;;;38.85;21.25;;;;;;;14.52;54.32;99298.53;4960384;28;20605;-72
2021/06/04 05:01:02;;;;;;;44.40;22.77;;;;;;;14.57;54.44;99299.25;4960293;28;20110;-72
2021/06/04 05:03:27;;;;;;;47.08;23.05;;;;;;;14.64;54.36;99304.41;4960101;28;20129;-73
2021/06/04 05:05:53;;;;;;;43.78;23.23;;;;;;;14.72;54.20;99305.66;4960207;28;20481;-72
2021/06/04 05:08:18;;;;;;;42.83;22.88;;;;;;;14.78;54.47;99303.63;4960265;28;20366;-73
2021/06/04 05:10:45;;;;;;;50.92;25.10;;;;;;;14.82;54.31;99299.97;4975002;28;20031;-73
2021/06/04 05:13:12;;;;;;;44.70;23.23;;;;;;;14.86;54.43;99302.94;4960354;28;20051;-73
2021/06/04 05:15:39;;;;;;;49.28;24.48;;;;;;;14.92;54.49;99307.25;4960241;28;20045;-73
2021/06/04 05:18:06;;;;;;;48.95;24.30;;;;;;;14.96;54.47;99299.16;4960277;28;20082;-73
2021/06/04 05:20:33;;;;;;;43.17;23.40;;;;;;;15.00;54.77;99306.53;4960274;28;20042;-72
2021/06/04 05:23:00;;;;;;;45.65;22.35;;;;;;;15.08;54.73;99315.25;4960278;28;20024;-72
2021/06/04 05:25:30;;;;;;;48.47;23.15;;;;;;;15.17;54.67;99324.44;4960280;28;20036;-72
2021/06/04 05:27:55;;;;;;;;;;;;;;;15.24;54.53;99316.56;4960727;28;20106;-72
2021/06/04 05:30:27;;;;;;;41.72;19.75;;;;;;;15.30;54.20;99317.28;4960258;29;19978;-73
2021/06/04 05:32:53;;;;;;;41.42;21.27;;;;;;;15.36;54.22;99320.78;4973465;28;20583;-73
2021/06/04 05:35:19;;;;;;;39.95;19.90;;;;;;;15.42;54.38;99317.59;4957074;28;20027;-73
2021/06/04 05:37:45;;;;;;;37.78;18.60;;;;;;;15.50;54.64;99318.81;4956982;28;20059;-73
2021/06/04 05:40:19;;;;;;;38.22;18.40;;;;;;;15.59;54.54;99318.94;4957176;28;20074;-73
2021/06/04 05:42:45;;;;;;;36.58;17.58;;;;;;;15.67;53.98;99315.44;4957086;28;20027;-73
2021/06/04 05:45:12;;;;;;;31.45;18.23;;;;;;;15.76;54.21;99310.81;4956936;28;20508;-73
2021/06/04 05:47:38;;;;;;;29.48;16.17;;;;;;;15.84;53.86;99317.56;4956925;29;20555;-72
2021/06/04 05:50:08;;;;;;;31.98;16.05;;;;;;;15.91;53.55;99320.75;4956973;28;20027;-73
2021/06/04 05:52:34;;;;;;;34.17;16.02;;;;;;;16.00;53.63;99320.00;4956832;28;20038;-72
2021/06/04 05:55:00;;;;;;;37.42;15.82;;;;;;;16.09;53.92;99318.16;4956873;28;20390;-73
2021/06/04 05:57:25;;;;;;;29.23;15.32;;;;;;;16.17;53.09;99313.81;4956759;28;20162;-73
2021/06/04 05:59:52;;;;;;;32.97;15.07;;;;;;;16.26;53.02;99314.69;4956782;28;20525;-73
2021/06/04 06:02:18;;;;;;;26.13;14.57;;;;;;;16.34;53.24;99319.50;4955392;28;20409;-74
2021/06/04 06:04:43;;;;;;;29.70;14.60;;;;;;;16.43;52.86;99321.50;4956544;28;20049;-73
2021/06/04 06:07:08;;;;;;;30.23;14.90;;;;;;;16.51;53.03;99315.19;4956704;28;20027;-73
2021/06/04 06:09:34;;;;;;;66.45;33.03;;;;;;;16.60;52.68;99313.31;4956872;28;20470;-73
2021/06/04 06:11:59;;;;;;;415.50;148.35;;;;;;;16.71;52.79;99315.84;4956483;28;20426;-74
2021/06/04 06:14:25;;;;;;;122.10;40.38;;;;;;;16.80;52.43;99322.25;4956352;28;20023;-73
2021/06/04 06:16:50;;;;;;;237.75;65.18;;;;;;;16.86;52.55;99315.44;4955233;29;20215;-74
2021/06/04 06:19:18;;;;;;;139.00;50.35;;;;;;;16.94;52.22;99316.63;4956252;28;20026;-73
2021/06/04 06:21:47;;;;;;;42.38;22.92;;;;;;;17.04;52.46;99315.56;4956388;28;20051;-72
2021/06/04 06:24:13;;;;;;;28.60;15.18;;;;;;;17.14;52.22;99323.59;4956225;29;20394;-72
2021/06/04 06:26:39;;;;;;;28.08;14.20;;;;;;;17.25;51.94;99329.66;4956258;28;20477;-73
2021/06/04 06:29:09;;;;;;;26.75;13.75;;;;;;;17.34;51.45;99322.22;4956179;28;20082;-73
2021/06/04 06:31:39;;;;;;;21.02;11.90;;;;;;;17.41;51.49;99316.19;4956167;28;20031;-73
2021/06/04 06:34:06;;;;;;;;;;;;;;;17.50;51.20;99325.38;4956548;28;20039;-72
2021/06/04 06:36:33;;;;;;;22.48;10.52;;;;;;;17.58;50.92;99326.50;4956053;29;19921;-73
2021/06/04 06:39:04;;;;;;;20.80;12.10;;;;;;;17.65;50.63;99326.06;4955793;28;20066;-72
2021/06/04 06:41:30;;;;;;;25.00;11.75;;;;;;;17.73;50.71;99335.53;4955957;28;20032;-73
2021/06/04 06:43:55;;;;;;;25.15;11.73;;;;;;;17.81;50.37;99332.78;4955328;28;20034;-73
2021/06/04 06:46:24;;;;;;;20.08;11.95;;;;;;;17.90;50.36;99329.19;4955784;28;20037;-73
2021/06/04 06:48:49;;;;;;;24.60;12.55;;;;;;;17.99;50.29;99328.09;4955842;28;20043;-72
2021/06/04 06:51:15;;;;;;;30.63;12.15;;;;;;;18.10;50.44;99325.84;4955810;28;20038;-72
2021/06/04 06:53:42;;;;;;;22.50;12.27;;;;;;;18.20;50.24;99321.09;4956009;28;20027;-74
2021/06/04 06:56:10;;;;;;;21.55;11.80;;;;;;;18.30;50.28;99334.66;4955727;28;20063;-73
2021/06/04 06:58:37;;;;;;;24.02;11.82;;;;;;;18.40;49.92;99331.56;4955835;28;20066;-72
2021/06/04 07:01:05;;;;;;;24.80;12.02;;;;;;;18.51;49.97;99325.69;4955823;28;20055;-73
2021/06/04 07:03:34;;;;;;;20.20;11.40;;;;;;;18.58;49.50;99328.75;4955446;28;20027;-73
2021/06/04 07:06:03;;;;;;;21.85;10.35;;;;;;;18.65;49.33;99328.28;4955876;28;20054;-72
2021/06/04 07:08:29;;;;;;;23.63;11.20;;;;;;;18.71;48.82;99326.97;4955685;28;20042;-74
2021/06/04 07:10:55;;;;;;;25.15;12.13;;;;;;;18.81;49.22;99329.38;4955342;28;20102;-73
2021/06/04 07:13:26;;;;;;;21.45;10.90;;;;;;;18.92;49.24;99326.25;4955197;28;20110;-72
2021/06/04 07:15:53;;;;;;;21.60;11.63;;;;;;;19.02;49.10;99329.50;4955212;28;20030;-72
2021/06/04 07:18:19;;;;;;;21.80;11.43;;;;;;;19.13;48.95;99329.16;4955340;28;20038;-71
2021/06/04 07:20:45;;;;;;;22.67;11.48;;;;;;;19.23;48.29;99334.34;4955097;28;20031;-72
2021/06/04 07:23:11;;;;;;;18.23;10.65;;;;;;;19.30;48.29;99325.50;4955263;28;20544;-72
2021/06/04 07:25:42;;;;;;;18.70;10.52;;;;;;;19.38;48.08;99332.97;4937653;29;20407;-73
2021/06/04 07:28:10;;;;;;;19.55;10.30;;;;;;;19.47;48.08;99322.63;4955259;28;20427;-72
2021/06/04 07:30:40;;;;;;;17.75;9.73;;;;;;;19.58;47.75;99325.03;4954804;28;20035;-73
2021/06/04 07:33:15;;;;;;;17.77;9.40;;;;;;;19.69;47.62;99322.69;4969731;28;20081;-73
2021/06/04 07:35:40;;;;;;;21.17;10.38;;;;;;;19.82;47.17;99327.16;4954983;28;20116;-73
2021/06/04 07:38:06;;;;;;;19.45;10.55;;;;;;;19.91;47.41;99324.38;4954652;28;20083;-72
2021/06/04 07:40:35;;;;;;;20.88;11.18;;;;;;;20.03;47.21;99327.22;4954723;28;20019;-72
2021/06/04 07:43:03;;;;;;;19.90;10.45;;;;;;;20.15;47.12;99320.09;4954662;28;20037;-74
2021/06/04 07:45:31;;;;;;;25.15;11.05;;;;;;;20.25;46.94;99324.44;4953202;29;20405;-73
2021/06/04 07:47:58;;;;;;;23.55;11.20;;;;;;;20.36;47.03;99320.09;4954569;28;20047;-72
2021/06/04 07:50:23;;;;;;;18.52;10.98;;;;;;;20.50;46.66;99322.59;4954536;28;20034;-72
2021/06/04 07:52:49;;;;;;;27.27;11.88;;;;;;;20.62;46.48;99328.22;4954451;29;20024;-72
2021/06/04 07:55:15;;;;;;;19.90;10.73;;;;;;;20.72;45.95;99323.38;4954073;28;20027;-72
2021/06/04 07:57:40;;;;;;;17.67;10.45;;;;;;;20.81;45.58;99324.13;4953818;28;20485;-73
2021/06/04 08:00:13;;;;;;;20.50;11.65;;;;;;;20.88;45.65;99320.78;4954173;28;20034;-73
2021/06/04 08:02:38;;;;;;;18.17;10.43;;;;;;;20.96;45.48;99319.88;4954156;28;20027;-73
2021/06/04 08:05:04;;;;;;;19.92;10.95;;;;;;;21.04;45.30;99316.16;4954228;28;20059;-72
2021/06/04 08:07:30;;;;;;;17.15;8.95;;;;;;;21.14;44.88;99320.50;4954378;28;20019;-72
2021/06/04 08:09:55;;;;;;;21.65;9.35;;;;;;;21.19;43.88;99323.06;4954230;28;20492;-73
2021/06/04 08:12:30;;;;;;;14.80;8.32;;;;;;;21.26;43.67;99319.69;4954314;29;20023;-73
2021/06/04 08:14:57;;;;;;;16.70;8.38;;;;;;;21.35;43.51;99314.81;4954370;29;20035;-73
2021/06/04 08:17:22;;;;;;;16.90;8.75;;;;;;;21.44;42.96;99313.88;4953070;28;20090;-72
2021/06/04 08:19:48;;;;;;;24.80;9.45;;;;;;;21.52;43.23;99315.72;4952388;28;20023;-74
2021/06/04 08:22:13;;;;;;;14.55;7.38;;;;;;;21.58;42.17;99317.13;4952668;28;20054;-73
2021/06/04 08:24:38;;;;;;;13.07;7.40;;;;;;;21.60;41.33;99311.22;4947221;28;20381;-77
2021/06/04 08:27:06;;;;;;;14.38;8.13;;;;;;;21.64;41.50;99321.34;4952336;29;20115;-74
2021/06/04 08:29:32;;;;;;;14.80;7.50;;;;;;;21.72;41.50;99316.78;4952796;29;20038;-75
2021/06/04 08:32:00;;;;;;;14.10;8.02;;;;;;;21.76;41.43;99317.72;4952353;29;20103;-76
2021/06/04 08:34:27;;;;;;;14.65;7.72;;;;;;;21.82;41.16;99307.94;4953538;29;20027;-78
2021/06/04 08:36:53;;;;;;;19.08;8.57;;;;;;;21.88;41.11;99318.88;4952701;29;20106;-77
2021/06/04 08:39:22;;;;;;;28.65;9.63;;;;;;;21.94;41.35;99323.06;4953292;28;20054;-77
2021/06/04 08:42:07;;;;;;;17.17;8.43;;;;;;;21.99;40.99;99320.84;4953605;28;20452;-76
2021/06/04 08:44:48;;;;;;;13.77;7.68;;;;;;;22.05;40.95;99321.41;4953604;28;20489;-76
2021/06/04 08:47:21;;;;;;;15.73;9.82;;;;;;;22.11;40.54;99308.00;4953494;28;20059;-78
2021/06/04 08:49:58;;;;;;;14.88;8.63;;;;;;;22.12;39.97;99315.22;4953755;28;20114;-75
2021/06/04 08:52:33;;;;;;;22.92;9.68;;;;;;;22.14;39.71;99310.09;4953615;28;20031;-75
2021/06/04 08:55:24;;;;;;;10.30;7.20;;;;;;;22.20;39.53;99313.44;4946988;28;20082;-76
2021/06/04 08:58:05;;;;;;;14.32;7.43;;;;;;;22.25;39.42;99313.22;4953516;29;20509;-74
2021/06/04 09:00:40;;;;;;;13.85;8.00;;;;;;;22.31;39.50;99315.38;4953524;29;20051;-75
2021/06/04 09:03:44;;;;;;;13.50;7.10;;;;;;;22.34;38.95;99308.28;4953423;29;20035;-75
2021/06/04 09:07:01;;;;;;;16.08;7.82;;;;;;;22.35;38.62;99307.13;4951460;29;20489;-76
2021/06/04 09:09:51;;;;;;;16.48;8.40;;;;;;;22.44;38.68;99309.78;4915007;29;20070;-77
2021/06/04 09:12:24;;;;;;;12.07;8.15;;;;;;;22.55;39.22;99310.91;4953610;29;20130;-77
2021/06/04 09:14:52;;;;;;;18.75;7.75;;;;;;;22.60;38.29;99302.28;4956624;29;20027;-75
2021/06/04 09:17:53;;;;;;;17.08;8.15;;;;;;;22.59;37.62;99297.84;4956777;29;20539;-76
2021/06/04 09:20:35;;;;;;;14.20;7.32;;;;;;;22.59;37.58;99300.66;4956826;28;20126;-76
2021/06/04 09:23:04;;;;;;;13.18;7.40;;;;;;;22.61;36.71;99305.88;4957118;28;20397;-77
2021/06/04 09:25:32;;;;;;;17.77;9.50;;;;;;;22.62;37.26;99290.72;4957149;28;20027;-77
2021/06/04 09:28:09;;;;;;;18.42;8.55;;;;;;;22.70;37.66;99295.34;4937524;29;20494;-77
2021/06/04 09:30:41;;;;;;;18.42;8.07;;;;;;;22.80;37.66;99280.03;4937044;29;20561;-76
2021/06/04 09:33:34;;;;;;;15.52;7.72;;;;;;;22.89;37.73;99289.06;4937377;29;20099;-76
2021/06/04 09:36:02;;;;;;;12.30;7.40;;;;;;;22.97;37.35;99284.44;4937359;29;20062;-76
2021/06/04 09:38:36;;;;;;;9.75;7.15;;;;;;;23.04;37.24;99284.66;4937244;29;20056;-77
2021/06/04 09:41:18;;;;;;;13.40;7.40;;;;;;;23.12;37.28;99285.63;4951733;29;20123;-76
2021/06/04 09:43:46;;;;;;;19.67;10.10;;;;;;;23.12;35.78;99277.22;4937146;29;20103;-76
2021/06/04 09:46:13;;;;;;;14.65;8.38;;;;;;;23.05;35.73;99279.84;4937053;29;20086;-77
2021/06/04 09:48:38;;;;;;;14.18;6.88;;;;;;;23.06;35.52;99278.66;4937540;29;20027;-76
2021/06/04 09:51:27;;;;;;;13.43;6.60;;;;;;;22.96;34.00;99274.44;4939650;29;20042;-79
2021/06/04 09:53:54;;;;;;;14.48;7.20;;;;;;;22.97;35.22;99278.06;4940372;28;20047;-78
2021/06/04 09:56:37;;;;;;;12.07;7.20;;;;;;;23.08;35.96;99275.53;4939025;29;20036;-82
2021/06/04 09:59:10;;;;;;;13.10;8.07;;;;;;;23.13;35.43;99281.66;4950373;29;20035;-71
2021/06/04 10:01:49;;;;;;;14.10;7.95;;;;;;;23.15;34.70;99268.13;4954610;29;20032;-80
2021/06/04 10:04:24;;;;;;;18.92;7.50;;;;;;;23.17;34.73;99274.16;4938640;29;20043;-81
2021/06/04 10:07:14;;;;;;;12.80;7.32;;;;;;;23.18;34.39;99281.38;4944346;29;20027;-83
2021/06/04 10:09:42;;;;;;;14.95;7.95;;;;;;;23.19;34.31;99279.41;4949540;29;20489;-80
2021/06/04 10:12:34;;;;;;;13.77;7.35;;;;;;;23.22;34.17;99272.28;4952982;29;20069;-81
2021/06/04 10:15:13;;;;;;;17.08;7.53;;;;;;;23.23;34.35;99271.13;4950880;29;20512;-83
2021/06/04 10:17:48;;;;;;;12.80;7.07;;;;;;;23.23;33.46;99274.72;4950460;28;20027;-79
2021/06/04 10:20:24;;;;;;;12.68;6.30;;;;;;;23.26;33.89;99276.81;4951783;28;20385;-80
2021/06/04 10:23:00;;;;;;;17.33;7.43;;;;;;;23.26;33.74;99274.00;4948894;29;20454;-80
2021/06/04 10:25:34;;;;;;;14.05;7.90;;;;;;;23.32;33.89;99271.75;4951354;29;20032;-81
2021/06/04 10:28:00;;;;;;;13.20;9.05;;;;;;;23.38;33.54;99269.50;4951967;29;20115;-82
2021/06/04 10:30:35;;;;;;;12.45;7.47;;;;;;;23.47;34.48;99270.91;4951960;29;20034;-81
2021/06/04 10:33:08;;;;;;;12.13;8.13;;;;;;;23.58;34.85;99270.34;4938971;28;20518;-78
2021/06/04 10:35:53;;;;;;;14.57;7.43;;;;;;;23.70;35.19;99269.41;4944126;29;20532;-79
2021/06/04 10:38:22;;;;;;;11.88;8.00;;;;;;;23.78;35.18;99266.44;4941893;29;20509;-82
2021/06/04 10:40:52;;;;;;;12.57;7.85;;;;;;;23.87;35.46;99269.03;4944198;29;20031;-76
2021/06/04 10:43:49;;;;;;;11.20;7.35;;;;;;;23.97;35.17;99264.03;4942507;29;20771;-77
2021/06/04 10:46:35;;;;;;;11.18;6.90;;;;;;;24.02;34.38;99267.38;4943954;29;20027;-79
2021/06/04 10:49:31;;;;;;;16.20;7.63;;;;;;;24.00;33.81;99255.72;4939975;29;20469;-80
2021/06/04 10:52:08;;;;;;;17.77;8.23;;;;;;;24.08;34.49;99256.66;4941141;29;20027;-78
2021/06/04 10:55:10;;;;;;;10.35;6.88;;;;;;;24.19;34.74;99251.31;4942607;29;20027;-76
2021/06/04 10:57:47;;;;;;;16.20;7.35;;;;;;;24.22;34.12;99248.56;4940411;29;20130;-75
2021/06/04 11:00:22;;;;;;;13.90;7.28;;;;;;;24.30;34.37;99245.91;4949688;28;20034;-76
2021/06/04 11:03:09;;;;;;;12.23;7.30;;;;;;;24.36;34.27;99248.03;4952687;28;20027;-75
2021/06/04 11:06:01;;;;;;;12.20;7.25;;;;;;;24.40;34.00;99238.88;4952797;28;20493;-75
2021/06/04 11:08:45;;;;;;;12.70;7.38;;;;;;;24.45;33.73;99235.78;4952119;29;20039;-75
2021/06/04 11:11:52;;;;;;;15.18;7.50;;;;;;;24.53;34.54;99238.34;4952717;29;20074;-75
2021/06/04 11:14:37;;;;;;;16.15;7.93;;;;;;;24.61;33.73;99236.50;4950691;29;20047;-74
2021/06/04 11:17:22;;;;;;;14.45;7.75;;;;;;;24.67;33.61;99245.41;4938488;29;20028;-74
2021/06/04 11:19:52;;;;;;;10.85;6.38;;;;;;;24.68;32.89;99235.81;4936550;28;20067;-75
2021/06/04 11:22:34;;;;;;;15.63;7.40;;;;;;;24.69;33.07;99226.22;4933269;29;20070;-74
2021/06/04 11:25:19;;;;;;;17.52;7.57;;;;;;;24.75;33.05;99229.53;4932924;29;20106;-76
2021/06/04 11:27:48;;;;;;;13.23;7.32;;;;;;;24.80;32.74;99218.00;4947704;29;20031;-76
2021/06/04 11:30:31;;;;;;;10.43;6.93;;;;;;;24.86;32.86;99232.56;4937096;29;20562;-75
2021/06/04 11:33:01;;;;;;;14.02;7.32;;;;;;;24.89;32.20;99223.38;4935648;29;20043;-75
2021/06/04 11:35:30;;;;;;;17.35;7.95;;;;;;;24.89;32.13;99223.38;4947457;28;20027;-74
2021/06/04 11:38:10;;;;;;;14.13;8.00;;;;;;;24.92;32.10;99217.84;4933310;29;20471;-75
2021/06/04 11:40:43;;;;;;;13.68;7.70;;;;;;;24.94;31.44;99215.47;4933295;29;20389;-75